Rosendale, WI (54974)

6:24 PM CST on January 29, 2015 (GMT -0600)
N9QBW | Change Station
CLOSE
Current Station
Personal Weather Station
Location: Eldorado, WI
Elevation: 897 ft
Nearby Weather Stations

Elev 897 ft 43.82 °N, 88.62 °W | Updated 5 seconds ago

Overcast
Overcast
31.3 °F
Feels Like 28 °F
N
3.8
Wind Variable Wind from NW
Gusts 9.6 mph

Today
High -- | Low -- °F
--% Chance of Precip.
Yesterday
High -- | Low -- °F
Precip. -- in
7:14 AM 5:01 PM
Waxing Gibbous, 78% visible
Pressure 30.16 in
Visibility 10.0 miles
Clouds Overcast 4900 ft
Windchill 28 °F
Dew Point 14 °F
Humidity 49%
Rainfall 0.00 in
Snow Depth Not available.
UV 0 out of 12
Pollen .10 out of 12
Air Quality Not available.
Flu Activity Not available.
METAR KFLD 292353Z AUTO 34010KT 10SM OVC049 01/M07 A3013 RMK AO2 SLP213 T00061072 10017 20006 53044

More Conditions Fewer Conditions

Pressure 30.16 in
Visibility 10.0 miles
Clouds Overcast 4900 ft
Windchill 28 °F
Dew Point 14 °F
Humidity 49%
Rainfall 0.00 in
Snow Depth Not available.
UV 0 out of 12
Pollen .10 out of 12
Air Quality Not available.
Flu Activity Not available.
METAR KFLD 292353Z AUTO 34010KT 10SM OVC049 01/M07 A3013 RMK AO2 SLP213 T00061072 10017 20006 53044

More Conditions Fewer Conditions

10-Day Weather Forecast

Almanac

Astronomy

Jan. 29, 2015 Rise Set
Actual Time
Civil Twilight
Nautical Twilight
Astronomical Twilight
Moon
Length of Visible Light
Length of Day
Tomorrow will be .
, % of the Moon is Illuminated

Today's Extremes

State Highs State Lows

Community

WunderPhotos

Upload Photos

1,791,651 photos uploaded!

WunderBlogs® & News

Nearby

Air Quality

  Air Quality AQ Index Pollutant
Not available.

Snow Depth

Station Depth Elevation

Earthquake Activity

City Distance Mag. Time & Date
Minimum magnitude displayed is 2.5.

Coastal Water Temperatures

Place Temperature

Nearby Weather Stations